sensor_id;sensor_type;location;lat;lon;timestamp;pressure;altitude;pressure_sealevel;temperature;humidity
57894;BME280;43710;47.460;19.034;2022-12-20T05:04:49;102210.59;;;2.79;72.89
57894;BME280;43710;47.460;19.034;2022-12-20T05:07:52;102210.59;;;2.79;72.89
57894;BME280;43710;47.460;19.034;2022-12-20T05:10:54;102199.59;;;2.38;82.33
57894;BME280;43710;47.460;19.034;2022-12-20T05:13:57;102215.56;;;2.29;73.59
57894;BME280;43710;47.460;19.034;2022-12-20T05:16:59;102209.16;;;2.24;75.91
57894;BME280;43710;47.460;19.034;2022-12-20T05:20:04;102215.41;;;2.46;87.51
57894;BME280;43710;47.460;19.034;2022-12-20T05:23:08;102212.75;;;2.46;75.42
57894;BME280;43710;47.460;19.034;2022-12-20T05:26:35;102211.00;;;2.38;72.70
57894;BME280;43710;47.460;19.034;2022-12-20T05:29:38;102222.44;;;2.39;72.97
57894;BME280;43710;47.460;19.034;2022-12-20T05:32:41;102219.84;;;2.16;73.43
57894;BME280;43710;47.460;19.034;2022-12-20T05:35:43;102219.31;;;2.35;71.80
57894;BME280;43710;47.460;19.034;2022-12-20T05:38:46;102227.34;;;2.27;71.79
57894;BME280;43710;47.460;19.034;2022-12-20T05:41:49;102220.56;;;2.09;73.55
57894;BME280;43710;47.460;19.034;2022-12-20T05:44:52;102226.00;;;2.08;80.30
57894;BME280;43710;47.460;19.034;2022-12-20T05:47:55;102223.00;;;2.11;73.46
57894;BME280;43710;47.460;19.034;2022-12-20T05:50:57;102218.22;;;2.29;73.97
57894;BME280;43710;47.460;19.034;2022-12-20T05:53:59;102216.44;;;2.22;76.11
57894;BME280;43710;47.460;19.034;2022-12-20T05:57:03;102215.94;;;2.26;76.60
57894;BME280;43710;47.460;19.034;2022-12-20T06:00:06;102205.00;;;2.59;79.63
57894;BME280;43710;47.460;19.034;2022-12-20T06:03:17;102199.97;;;2.34;83.51
57894;BME280;43710;47.460;19.034;2022-12-20T06:06:20;102198.63;;;2.68;83.49
57894;BME280;43710;47.460;19.034;2022-12-20T06:09:23;102183.56;;;2.69;75.85
57894;BME280;43710;47.460;19.034;2022-12-20T06:12:26;102185.81;;;2.57;82.73
57894;BME280;43710;47.460;19.034;2022-12-20T06:15:28;102184.62;;;2.45;71.70
57894;BME280;43710;47.460;19.034;2022-12-20T06:18:31;102185.66;;;2.58;84.43
57894;BME280;43710;47.460;19.034;2022-12-20T06:21:34;102170.66;;;2.51;73.42
57894;BME280;43710;47.460;19.034;2022-12-20T06:24:37;102171.69;;;2.50;78.50
57894;BME280;43710;47.460;19.034;2022-12-20T06:27:49;102176.69;;;2.30;71.27
57894;BME280;43710;47.460;19.034;2022-12-20T06:30:53;102179.50;;;2.14;75.26
57894;BME280;43710;47.460;19.034;2022-12-20T06:33:57;102170.59;;;2.29;73.43
57894;BME280;43710;47.460;19.034;2022-12-20T06:37:00;102176.84;;;2.14;72.83
57894;BME280;43710;47.460;19.034;2022-12-20T06:40:03;102168.00;;;2.21;75.12
57894;BME280;43710;47.460;19.034;2022-12-20T06:43:06;102169.28;;;2.55;90.37
57894;BME280;43710;47.460;19.034;2022-12-20T06:46:09;102173.59;;;2.56;73.62
57894;BME280;43710;47.460;19.034;2022-12-20T06:49:11;102172.50;;;2.35;73.64
57894;BME280;43710;47.460;19.034;2022-12-20T06:52:13;102154.59;;;2.23;74.61
57894;BME280;43710;47.460;19.034;2022-12-20T06:55:16;102165.03;;;2.39;74.06
57894;BME280;43710;47.460;19.034;2022-12-20T06:58:19;102159.28;;;2.35;72.02
57894;BME280;43710;47.460;19.034;2022-12-20T07:01:22;102148.59;;;2.44;73.09
57894;BME280;43710;47.460;19.034;2022-12-20T07:04:24;102149.97;;;2.40;71.70
57894;BME280;43710;47.460;19.034;2022-12-20T07:07:26;102145.91;;;2.73;82.78
57894;BME280;43710;47.460;19.034;2022-12-20T07:10:30;102143.03;;;2.68;88.23
57894;BME280;43710;47.460;19.034;2022-12-20T07:13:33;102146.97;;;2.94;86.80
57894;BME280;43710;47.460;19.034;2022-12-20T07:16:36;102142.56;;;3.01;94.50
57894;BME280;43710;47.460;19.034;2022-12-20T07:19:39;102132.69;;;3.10;92.71
57894;BME280;43710;47.460;19.034;2022-12-20T07:22:48;102132.41;;;3.04;77.26
57894;BME280;43710;47.460;19.034;2022-12-20T07:25:58;102138.41;;;3.28;83.30
57894;BME280;43710;47.460;19.034;2022-12-20T07:29:01;102145.34;;;2.93;70.91
57894;BME280;43710;47.460;19.034;2022-12-20T07:32:03;102152.22;;;2.72;73.22
57894;BME280;43710;47.460;19.034;2022-12-20T07:35:06;102153.22;;;2.71;72.67
57894;BME280;43710;47.460;19.034;2022-12-20T07:38:08;102150.69;;;2.63;71.27
57894;BME280;43710;47.460;19.034;2022-12-20T07:41:13;102156.16;;;2.76;81.09
57894;BME280;43710;47.460;19.034;2022-12-20T07:44:16;102157.78;;;2.77;86.24
57894;BME280;43710;47.460;19.034;2022-12-20T07:47:19;102153.09;;;2.94;82.52
57894;BME280;43710;47.460;19.034;2022-12-20T07:50:22;102150.88;;;2.98;72.76
57894;BME280;43710;47.460;19.034;2022-12-20T07:53:26;102151.00;;;2.90;72.80
57894;BME280;43710;47.460;19.034;2022-12-20T07:56:32;102152.13;;;3.17;92.23
57894;BME280;43710;47.460;19.034;2022-12-20T07:59:50;102152.09;;;3.32;84.38
57894;BME280;43710;47.460;19.034;2022-12-20T08:03:09;102148.50;;;3.03;70.27
57894;BME280;43710;47.460;19.034;2022-12-20T08:06:13;102152.91;;;2.96;69.87
57894;BME280;43710;47.460;19.034;2022-12-20T08:09:17;102138.03;;;2.95;75.41
57894;BME280;43710;47.460;19.034;2022-12-20T08:12:20;102131.47;;;3.48;92.03
57894;BME280;43710;47.460;19.034;2022-12-20T08:15:23;102116.03;;;3.59;93.97
57894;BME280;43710;47.460;19.034;2022-12-20T08:18:26;102108.63;;;3.54;89.81
57894;BME280;43710;47.460;19.034;2022-12-20T08:21:29;102108.09;;;3.59;86.25
57894;BME280;43710;47.460;19.034;2022-12-20T08:24:32;102100.91;;;3.52;69.84
57894;BME280;43710;47.460;19.034;2022-12-20T08:27:35;102102.72;;;3.80;79.97
57894;BME280;43710;47.460;19.034;2022-12-20T08:30:37;102109.16;;;3.43;71.67
57894;BME280;43710;47.460;19.034;2022-12-20T08:33:40;102107.13;;;3.23;69.52
57894;BME280;43710;47.460;19.034;2022-12-20T08:36:42;102106.88;;;3.40;85.70
57894;BME280;43710;47.460;19.034;2022-12-20T08:39:44;102105.50;;;3.22;68.62
57894;BME280;43710;47.460;19.034;2022-12-20T08:42:47;102104.50;;;3.94;86.07
57894;BME280;43710;47.460;19.034;2022-12-20T08:45:53;102107.87;;;3.60;66.90
57894;BME280;43710;47.460;19.034;2022-12-20T08:48:56;102103.44;;;3.67;79.84
57894;BME280;43710;47.460;19.034;2022-12-20T08:51:58;102112.78;;;3.85;73.44
57894;BME280;43710;47.460;19.034;2022-12-20T08:55:00;102101.16;;;3.86;83.68
57894;BME280;43710;47.460;19.034;2022-12-20T08:58:06;102092.22;;;3.65;75.03
57894;BME280;43710;47.460;19.034;2022-12-20T09:01:20;102089.38;;;3.95;71.35
57894;BME280;43710;47.460;19.034;2022-12-20T09:04:27;102091.09;;;3.74;86.39
57894;BME280;43710;47.460;19.034;2022-12-20T09:07:30;102095.06;;;4.27;84.49
57894;BME280;43710;47.460;19.034;2022-12-20T09:10:32;102100.50;;;3.84;66.02
57894;BME280;43710;47.460;19.034;2022-12-20T09:13:34;102092.84;;;3.95;68.94
57894;BME280;43710;47.460;19.034;2022-12-20T09:16:44;102100.44;;;3.98;73.57
57894;BME280;43710;47.460;19.034;2022-12-20T09:19:47;102104.28;;;3.68;67.28
57894;BME280;43710;47.460;19.034;2022-12-20T09:22:49;102100.50;;;3.84;79.34
57894;BME280;43710;47.460;19.034;2022-12-20T09:25:52;102094.91;;;4.00;66.68
57894;BME280;43710;47.460;19.034;2022-12-20T09:28:55;102100.34;;;4.20;89.60
57894;BME280;43710;47.460;19.034;2022-12-20T09:31:58;102097.59;;;4.35;72.72
57894;BME280;43710;47.460;19.034;2022-12-20T09:35:00;102095.97;;;4.06;67.14
57894;BME280;43710;47.460;19.034;2022-12-20T09:38:03;102085.88;;;4.22;87.41
57894;BME280;43710;47.460;19.034;2022-12-20T09:41:07;102066.41;;;4.57;91.99
57894;BME280;43710;47.460;19.034;2022-12-20T09:44:18;102045.81;;;4.65;78.58
57894;BME280;43710;47.460;19.034;2022-12-20T09:47:23;102044.78;;;4.66;68.66
57894;BME280;43710;47.460;19.034;2022-12-20T09:50:42;102039.66;;;4.58;92.38
57894;BME280;43710;47.460;19.034;2022-12-20T10:00:25;102039.06;;;4.63;74.63
57894;BME280;43710;47.460;19.034;2022-12-20T10:03:31;102040.44;;;4.45;72.98
57894;BME280;43710;47.460;19.034;2022-12-20T10:16:44;102023.75;;;4.65;77.23
57894;BME280;43710;47.460;19.034;2022-12-20T10:20:02;102026.53;;;4.50;70.28
57894;BME280;43710;47.460;19.034;2022-12-20T10:23:27;102012.00;;;4.33;77.80
57894;BME280;43710;47.460;19.034;2022-12-20T10:26:34;102012.13;;;4.86;86.24
57894;BME280;43710;47.460;19.034;2022-12-20T10:29:37;101998.97;;;4.44;64.05
57894;BME280;43710;47.460;19.034;2022-12-20T10:32:39;102006.28;;;4.36;64.45
57894;BME280;43710;47.460;19.034;2022-12-20T10:35:44;101993.72;;;4.64;73.85
57894;BME280;43710;47.460;19.034;2022-12-20T10:38:49;101985.38;;;4.81;70.88
57894;BME280;43710;47.460;19.034;2022-12-20T10:41:52;101974.12;;;5.18;80.78
57894;BME280;43710;47.460;19.034;2022-12-20T10:44:54;101967.78;;;5.13;81.03
57894;BME280;43710;47.460;19.034;2022-12-20T10:48:00;101964.09;;;4.81;70.87
57894;BME280;43710;47.460;19.034;2022-12-20T10:54:34;101960.66;;;5.07;72.19
57894;BME280;43710;47.460;19.034;2022-12-20T10:57:40;101957.75;;;5.35;70.37
57894;BME280;43710;47.460;19.034;2022-12-20T11:00:44;101957.56;;;5.16;61.28
57894;BME280;43710;47.460;19.034;2022-12-20T11:07:01;101930.16;;;5.03;67.41
57894;BME280;43710;47.460;19.034;2022-12-20T11:10:25;101924.25;;;4.81;61.46
57894;BME280;43710;47.460;19.034;2022-12-20T11:13:27;101927.31;;;4.91;67.27
57894;BME280;43710;47.460;19.034;2022-12-20T11:16:39;101918.31;;;4.85;63.80
57894;BME280;43710;47.460;19.034;2022-12-20T11:20:07;101903.19;;;4.86;67.99
57894;BME280;43710;47.460;19.034;2022-12-20T11:23:29;101905.66;;;4.94;66.79
57894;BME280;43710;47.460;19.034;2022-12-20T11:30:07;101900.31;;;5.14;72.90
57894;BME280;43710;47.460;19.034;2022-12-20T11:43:30;101890.69;;;5.06;60.91
57894;BME280;43710;47.460;19.034;2022-12-20T11:53:42;101871.69;;;5.09;60.63
57894;BME280;43710;47.460;19.034;2022-12-20T11:56:50;101876.12;;;5.42;66.57
57894;BME280;43710;47.460;19.034;2022-12-20T11:59:59;101876.53;;;5.39;66.88
57894;BME280;43710;47.460;19.034;2022-12-20T12:03:11;101866.47;;;5.54;76.36
57894;BME280;43710;47.460;19.034;2022-12-20T12:06:24;101878.38;;;5.38;60.82
57894;BME280;43710;47.460;19.034;2022-12-20T12:13:14;101866.06;;;5.57;68.76
57894;BME280;43710;47.460;19.034;2022-12-20T12:16:26;101852.47;;;5.72;69.54
57894;BME280;43710;47.460;19.034;2022-12-20T12:19:30;101850.56;;;5.93;68.52
57894;BME280;43710;47.460;19.034;2022-12-20T12:22:34;101854.75;;;5.69;61.95
57894;BME280;43710;47.460;19.034;2022-12-20T12:25:39;101854.28;;;5.78;76.00
57894;BME280;43710;47.460;19.034;2022-12-20T12:28:42;101855.12;;;6.17;83.37
57894;BME280;43710;47.460;19.034;2022-12-20T12:31:59;101841.56;;;6.25;61.29
57894;BME280;43710;47.460;19.034;2022-12-20T12:35:21;101845.16;;;6.12;68.58
57894;BME280;43710;47.460;19.034;2022-12-20T12:39:14;101840.88;;;6.05;66.76
57894;BME280;43710;47.460;19.034;2022-12-20T12:45:59;101826.09;;;6.41;77.12
57894;BME280;43710;47.460;19.034;2022-12-20T12:49:18;101824.53;;;6.33;75.45
57894;BME280;43710;47.460;19.034;2022-12-20T12:52:39;101817.16;;;6.28;68.64
57894;BME280;43710;47.460;19.034;2022-12-20T13:08:47;101820.56;;;5.14;62.64
57894;BME280;43710;47.460;19.034;2022-12-20T13:11:52;101814.00;;;5.30;67.32
57894;BME280;43710;47.460;19.034;2022-12-20T13:18:29;101811.53;;;5.22;74.44
57894;BME280;43710;47.460;19.034;2022-12-20T13:21:35;101809.34;;;5.63;73.03
57894;BME280;43710;47.460;19.034;2022-12-20T13:31:29;101803.75;;;5.72;73.97
57894;BME280;43710;47.460;19.034;2022-12-20T13:34:54;101803.09;;;5.83;74.25
57894;BME280;43710;47.460;19.034;2022-12-20T13:38:04;101790.97;;;5.49;61.88
57894;BME280;43710;47.460;19.034;2022-12-20T13:41:35;101792.25;;;5.33;72.77
57894;BME280;43710;47.460;19.034;2022-12-20T13:44:42;101804.03;;;5.63;74.96
57894;BME280;43710;47.460;19.034;2022-12-20T13:47:50;101792.63;;;5.50;71.97
57894;BME280;43710;47.460;19.034;2022-12-20T13:50:56;101788.41;;;5.74;85.13
57894;BME280;43710;47.460;19.034;2022-12-20T13:54:01;101778.31;;;5.82;68.05
57894;BME280;43710;47.460;19.034;2022-12-20T13:57:05;101793.69;;;5.80;63.57
57894;BME280;43710;47.460;19.034;2022-12-20T14:00:17;101782.78;;;5.57;71.12
57894;BME280;43710;47.460;19.034;2022-12-20T14:03:23;101761.19;;;5.33;74.29
57894;BME280;43710;47.460;19.034;2022-12-20T14:06:26;101759.91;;;5.42;72.31
57894;BME280;43710;47.460;19.034;2022-12-20T14:09:36;101760.09;;;5.48;68.12
57894;BME280;43710;47.460;19.034;2022-12-20T14:12:44;101757.28;;;5.36;60.55
57894;BME280;43710;47.460;19.034;2022-12-20T14:15:48;101754.63;;;5.36;67.37
57894;BME280;43710;47.460;19.034;2022-12-20T14:21:59;101757.12;;;5.31;59.86
57894;BME280;43710;47.460;19.034;2022-12-20T14:25:03;101750.75;;;5.32;69.17
57894;BME280;43710;47.460;19.034;2022-12-20T14:28:16;101755.06;;;5.26;65.75
57894;BME280;43710;47.460;19.034;2022-12-20T14:34:41;101745.69;;;5.24;64.65
57894;BME280;43710;47.460;19.034;2022-12-20T14:37:55;101731.19;;;5.13;64.27
57894;BME280;43710;47.460;19.034;2022-12-20T14:40:58;101726.97;;;4.99;67.07
57894;BME280;43710;47.460;19.034;2022-12-20T14:47:26;101720.25;;;4.89;66.38
57894;BME280;43710;47.460;19.034;2022-12-20T14:50:34;101709.47;;;4.78;61.77
57894;BME280;43710;47.460;19.034;2022-12-20T14:53:38;101716.41;;;4.79;63.62
57894;BME280;43710;47.460;19.034;2022-12-20T14:56:45;101709.16;;;4.99;80.89
57894;BME280;43710;47.460;19.034;2022-12-20T15:03:28;101712.19;;;5.09;67.93
57894;BME280;43710;47.460;19.034;2022-12-20T15:06:42;101719.69;;;5.26;69.87
57894;BME280;43710;47.460;19.034;2022-12-20T15:09:45;101721.31;;;5.33;66.18
57894;BME280;43710;47.460;19.034;2022-12-20T15:12:47;101719.75;;;5.57;72.25
57894;BME280;43710;47.460;19.034;2022-12-20T15:15:49;101717.94;;;5.51;78.45
57894;BME280;43710;47.460;19.034;2022-12-20T15:19:00;101726.91;;;5.57;69.90
57894;BME280;43710;47.460;19.034;2022-12-20T15:22:02;101714.91;;;5.41;71.04
57894;BME280;43710;47.460;19.034;2022-12-20T15:25:14;101713.53;;;5.32;71.25
57894;BME280;43710;47.460;19.034;2022-12-20T15:28:19;101719.00;;;5.44;73.10
57894;BME280;43710;47.460;19.034;2022-12-20T15:31:23;101710.63;;;5.40;70.99
57894;BME280;43710;47.460;19.034;2022-12-20T15:34:36;101715.84;;;5.22;70.87
57894;BME280;43710;47.460;19.034;2022-12-20T15:37:39;101716.91;;;5.14;74.54
57894;BME280;43710;47.460;19.034;2022-12-20T15:40:43;101725.63;;;5.28;75.33
57894;BME280;43710;47.460;19.034;2022-12-20T15:43:46;101722.88;;;4.96;70.62
57894;BME280;43710;47.460;19.034;2022-12-20T15:46:50;101728.56;;;5.06;79.11
57894;BME280;43710;47.460;19.034;2022-12-20T15:49:53;101737.53;;;5.18;78.79
57894;BME280;43710;47.460;19.034;2022-12-20T15:52:55;101738.78;;;5.09;67.26
57894;BME280;43710;47.460;19.034;2022-12-20T15:55:59;101737.47;;;4.74;68.17
57894;BME280;43710;47.460;19.034;2022-12-20T15:59:01;101736.84;;;4.71;78.77
57894;BME280;43710;47.460;19.034;2022-12-20T16:02:26;101724.59;;;4.77;74.45
57894;BME280;43710;47.460;19.034;2022-12-20T16:05:30;101729.38;;;5.13;73.19
57894;BME280;43710;47.460;19.034;2022-12-20T16:08:32;101725.78;;;4.88;69.54
57894;BME280;43710;47.460;19.034;2022-12-20T16:11:34;101726.59;;;4.82;75.36
57894;BME280;43710;47.460;19.034;2022-12-20T16:14:36;101728.91;;;4.65;67.34
57894;BME280;43710;47.460;19.034;2022-12-20T16:17:39;101729.69;;;4.79;83.80
57894;BME280;43710;47.460;19.034;2022-12-20T16:20:42;101730.69;;;4.84;78.05
57894;BME280;43710;47.460;19.034;2022-12-20T16:23:45;101722.31;;;4.81;74.65
57894;BME280;43710;47.460;19.034;2022-12-20T16:26:48;101725.37;;;4.91;79.06
57894;BME280;43710;47.460;19.034;2022-12-20T16:29:50;101728.78;;;5.05;72.13
57894;BME280;43710;47.460;19.034;2022-12-20T16:32:53;101716.75;;;4.95;78.49
57894;BME280;43710;47.460;19.034;2022-12-20T16:35:55;101717.06;;;4.61;67.54
57894;BME280;43710;47.460;19.034;2022-12-20T16:38:58;101707.69;;;5.10;76.03
57894;BME280;43710;47.460;19.034;2022-12-20T16:42:00;101705.59;;;4.74;66.68
57894;BME280;43710;47.460;19.034;2022-12-20T16:45:03;101713.50;;;4.93;76.79
57894;BME280;43710;47.460;19.034;2022-12-20T16:48:05;101701.97;;;5.06;69.60
57894;BME280;43710;47.460;19.034;2022-12-20T16:51:31;101711.69;;;4.81;70.47
57894;BME280;43710;47.460;19.034;2022-12-20T16:54:34;101707.38;;;4.86;83.68
